Time;durP1;ratioP1;P1;durP2;ratioP2;P2;SDS_P1;SDS_P2;PMS_P1;PMS_P2;Temp;Humidity;BMP_temperature;BMP_pressure;BME280_temperature;BME280_humidity;BME280_pressure;Samples;Min_cycle;Max_cycle;Signal;HPM_P1;HPM_P2
2023/05/04 00:01:31;;;;;;;;;;;;;;;17.83;47.67;101358.38;5025966;28;1212;-52
2023/05/04 00:03:56;;;;;;;;;;;;;;;17.37;48.43;101404.84;5027338;28;1158;-53
2023/05/04 00:06:22;;;;;;;;;;;;;;;16.84;48.51;101410.13;5015907;28;1130;-49
2023/05/04 00:08:47;;;;;;;;;;;;;;;17.03;48.53;101369.41;5016118;28;1194;-52
2023/05/04 00:11:13;;;;;;;;;;;;;;;17.22;48.56;101411.91;5016097;28;1961;-52
2023/05/04 00:13:38;;;;;;;;;;;;;;;16.72;48.54;101353.47;5015238;28;1160;-50
2023/05/04 00:16:04;;;;;;;;;;;;;;;16.65;47.48;101343.75;5023255;28;916;-52
2023/05/04 00:18:29;;;;;;;;;;;;;;;16.46;46.79;101379.81;5019729;28;1210;-48
2023/05/04 00:20:55;;;;;;;;;;;;;;;16.30;46.63;101365.13;5019542;28;1119;-49
2023/05/04 00:23:20;;;;;;;;;;;;;;;17.06;47.34;101347.72;5020001;28;1032;-52
2023/05/04 00:25:46;;;;;;;;;;;;;;;16.67;47.57;101330.63;5019475;28;1039;-51
2023/05/04 00:28:11;;;;;;;;;;;;;;;17.07;47.72;101360.38;5019260;28;850;-51
2023/05/04 00:30:37;;;;;;;;;;;;;;;17.61;48.11;101367.63;5019354;28;1965;-51
2023/05/04 00:33:03;;;;;;;;;;;;;;;16.88;48.46;101365.44;5019384;28;1155;-50
2023/05/04 00:35:30;;;;;;;;;;;;;;;16.73;47.77;101357.88;5019084;28;1110;-49
2023/05/04 00:37:56;;;;;;;;;;;;;;;16.55;47.08;101345.34;5020102;28;1139;-49
2023/05/04 00:40:21;;;;;;;;;;;;;;;16.39;46.84;101351.75;5027002;28;803;-51
2023/05/04 00:42:47;;;;;;;;;;;;;;;16.32;46.33;101360.19;5006257;28;1206;-48
2023/05/04 00:45:13;;;;;;;;;;;;;;;17.28;47.65;101363.28;5018600;28;1044;-52
2023/05/04 00:47:38;;;;;;;;;;;;;;;16.57;47.80;101354.13;5019590;28;1469;-48
2023/05/04 00:50:05;;;;;;;;;;;;;;;16.39;47.24;101358.06;5030252;28;1973;-51
2023/05/04 00:52:30;;;;;;;;;;;;;;;17.17;47.39;101351.38;5018688;28;989;-52
2023/05/04 00:54:56;;;;;;;;;;;;;;;16.71;47.96;101349.03;5017706;28;1131;-52
2023/05/04 00:57:22;;;;;;;;;;;;;;;16.43;47.36;101326.25;5017650;28;1306;-51
2023/05/04 00:59:47;;;;;;;;;;;;;;;17.47;47.31;101327.94;5017735;28;1124;-51
2023/05/04 01:02:13;;;;;;;;;;;;;;;16.75;47.87;101327.41;5018982;28;1092;-52
2023/05/04 01:04:38;;;;;;;;;;;;;;;16.48;47.38;101330.16;5027048;28;910;-51
2023/05/04 01:07:12;;;;;;;;;;;;;;;16.51;47.04;101329.63;5018134;28;1230;-51
2023/05/04 01:09:40;;;;;;;;;;;;;;;16.89;47.78;101322.31;5018345;28;1961;-51
2023/05/04 01:12:12;;;;;;;;;;;;;;;16.48;47.53;101322.75;5017418;28;1036;-51
2023/05/04 01:14:37;;;;;;;;;;;;;;;16.36;47.06;101320.16;5017225;28;1309;-49
2023/05/04 01:17:04;;;;;;;;;;;;;;;16.38;46.13;101301.53;5000442;28;1047;-52
2023/05/04 01:19:29;;;;;;;;;;;;;;;17.15;46.89;101301.34;5015683;28;1291;-49
2023/05/04 01:21:58;;;;;;;;;;;;;;;16.51;47.53;101296.69;5017114;28;1521;-47
2023/05/04 01:24:23;;;;;;;;;;;;;;;17.17;47.47;101309.34;5017535;28;1640;-52
2023/05/04 01:26:50;;;;;;;;;;;;;;;17.27;47.72;101320.41;5017101;28;1458;-51
2023/05/04 01:29:27;;;;;;;;;;;;;;;16.72;47.87;101334.22;5024003;28;1902;-50
2023/05/04 01:31:53;;;;;;;;;;;;;;;16.44;47.11;101346.31;5033041;28;1071;-51
2023/05/04 01:34:19;;;;;;;;;;;;;;;16.34;46.38;101352.53;5017514;28;1076;-53
2023/05/04 01:36:44;;;;;;;;;;;;;;;16.32;45.78;101351.94;5016697;28;1282;-48
2023/05/04 01:39:10;;;;;;;;;;;;;;;16.12;45.40;101340.72;5020894;28;1095;-50
2023/05/04 01:41:35;;;;;;;;;;;;;;;16.86;47.14;101339.31;5017181;28;2324;-50
2023/05/04 01:44:01;;;;;;;;;;;;;;;16.35;47.17;101347.88;5016444;28;1226;-52
2023/05/04 01:46:27;;;;;;;;;;;;;;;16.77;46.91;101356.25;5016576;28;1222;-51
2023/05/04 01:48:52;;;;;;;;;;;;;;;16.96;47.65;101355.91;5018324;28;1071;-51
2023/05/04 01:51:20;;;;;;;;;;;;;;;16.49;47.82;101348.28;5019694;28;1195;-51
2023/05/04 01:53:46;;;;;;;;;;;;;;;17.42;47.53;101326.00;5024405;28;1062;-49
2023/05/04 01:56:11;;;;;;;;;;;;;;;16.75;47.89;101322.72;5018363;28;1259;-51
2023/05/04 01:58:37;;;;;;;;;;;;;;;16.98;47.98;101320.72;5016149;28;1508;-53
2023/05/04 02:01:03;;;;;;;;;;;;;;;17.57;47.73;101321.66;5016603;28;1134;-53
2023/05/04 02:03:30;;;;;;;;;;;;;;;16.77;48.21;101297.75;5020065;28;1191;-53
2023/05/04 02:05:55;;;;;;;;;;;;;;;16.58;47.24;101297.31;5005441;28;1132;-51
2023/05/04 02:08:21;;;;;;;;;;;;;;;17.61;47.67;101289.78;5016592;28;1187;-52
2023/05/04 02:10:46;;;;;;;;;;;;;;;16.90;48.24;101291.00;5005384;28;1902;-52
2023/05/04 02:13:12;;;;;;;;;;;;;;;16.61;47.25;101288.56;5009000;28;1024;-51
2023/05/04 02:15:37;;;;;;;;;;;;;;;16.48;46.92;101295.31;5014653;28;1213;-49
2023/05/04 02:18:03;;;;;;;;;;;;;;;17.31;47.44;101290.47;5015837;28;1152;-52
2023/05/04 02:20:28;;;;;;;;;;;;;;;16.75;47.66;101278.78;5020671;28;1143;-49
2023/05/04 02:22:54;;;;;;;;;;;;;;;16.74;47.64;101279.88;5026296;28;1166;-51
2023/05/04 02:25:19;;;;;;;;;;;;;;;17.11;47.56;101275.50;5017449;28;1059;-49
2023/05/04 02:27:45;;;;;;;;;;;;;;;16.68;47.55;101275.44;5016058;28;1307;-52
2023/05/04 02:30:11;;;;;;;;;;;;;;;16.45;46.93;101281.25;5017120;28;1910;-52
2023/05/04 02:32:36;;;;;;;;;;;;;;;17.47;46.88;101285.88;5015939;28;1293;-51
2023/05/04 02:35:02;;;;;;;;;;;;;;;16.67;47.95;101281.19;5016877;28;1012;-52
2023/05/04 02:37:28;;;;;;;;;;;;;;;16.46;47.12;101300.22;5018191;28;1191;-49
2023/05/04 02:39:54;;;;;;;;;;;;;;;17.40;47.13;101305.34;5016324;28;1071;-48
2023/05/04 02:42:19;;;;;;;;;;;;;;;16.68;47.80;101300.16;5015681;28;1141;-49
2023/05/04 02:44:45;;;;;;;;;;;;;;;16.50;47.05;101306.84;5016688;28;1421;-48
2023/05/04 02:47:10;;;;;;;;;;;;;;;17.13;47.69;101306.28;5016933;28;1108;-53
2023/05/04 02:49:36;;;;;;;;;;;;;;;16.84;47.64;101325.81;5016209;28;1910;-52
2023/05/04 02:52:01;;;;;;;;;;;;;;;16.49;47.38;101331.81;5016181;28;1059;-52
2023/05/04 02:54:27;;;;;;;;;;;;;;;16.45;46.94;101330.69;5014184;28;1416;-49
2023/05/04 02:56:52;;;;;;;;;;;;;;;16.97;47.45;101357.56;5016991;28;1068;-51
2023/05/04 02:59:18;;;;;;;;;;;;;;;16.53;47.49;101352.16;5016725;28;1194;-50
2023/05/04 03:01:44;;;;;;;;;;;;;;;17.36;47.24;101335.31;5014980;28;1628;-50
2023/05/04 03:04:09;;;;;;;;;;;;;;;16.84;47.89;101341.47;5021438;28;1147;-49
2023/05/04 03:06:35;;;;;;;;;;;;;;;16.66;47.46;101340.78;5018022;28;1197;-52
2023/05/04 03:09:00;;;;;;;;;;;;;;;16.51;46.44;101355.19;5015212;28;1906;-60
2023/05/04 03:11:26;;;;;;;;;;;;;;;16.48;46.70;101374.06;5010161;28;1434;-60
2023/05/04 03:13:51;;;;;;;;;;;;;;;17.03;47.53;101366.69;5012477;28;1192;-59
2023/05/04 03:16:18;;;;;;;;;;;;;;;16.48;47.55;101365.84;5026870;28;1438;-59
2023/05/04 03:18:43;;;;;;;;;;;;;;;18.05;46.63;101385.75;5006067;28;1003;-59
2023/05/04 03:21:09;;;;;;;;;;;;;;;17.08;48.20;101396.91;5015028;28;1362;-59
2023/05/04 03:23:35;;;;;;;;;;;;;;;16.73;47.54;101389.97;5048239;28;1153;-58
2023/05/04 03:26:00;;;;;;;;;;;;;;;16.53;46.68;101390.59;5015387;28;1375;-61
2023/05/04 03:28:26;;;;;;;;;;;;;;;16.42;46.02;101392.41;5019339;28;1055;-59
2023/05/04 03:30:52;;;;;;;;;;;;;;;16.60;46.83;101407.69;5015729;28;1902;-59
2023/05/04 03:33:19;;;;;;;;;;;;;;;16.87;47.76;101404.97;5014829;28;1452;-58
2023/05/04 03:35:45;;;;;;;;;;;;;;;16.49;47.39;101400.44;5014927;28;1975;-60
2023/05/04 03:38:10;;;;;;;;;;;;;;;16.31;46.72;101398.88;5029073;28;1382;-58
2023/05/04 03:40:36;;;;;;;;;;;;;;;16.22;46.48;101404.81;5017681;28;1171;-58
2023/05/04 03:43:01;;;;;;;;;;;;;;;17.45;46.57;101402.44;5016021;28;1234;-58
2023/05/04 03:45:27;;;;;;;;;;;;;;;16.61;47.64;101390.16;5014255;28;1319;-58
2023/05/04 03:47:56;;;;;;;;;;;;;;;16.38;47.41;101391.25;5015898;28;1077;-59
2023/05/04 03:50:21;;;;;;;;;;;;;;;17.28;47.18;101407.28;5014873;28;1909;-60
2023/05/04 03:52:47;;;;;;;;;;;;;;;16.90;48.31;101395.38;5027853;28;1151;-60
2023/05/04 03:55:13;;;;;;;;;;;;;;;16.51;47.89;101414.72;5020522;28;1205;-59
2023/05/04 03:57:39;;;;;;;;;;;;;;;16.37;46.96;101420.63;5020289;28;1025;-57
2023/05/04 04:00:04;;;;;;;;;;;;;;;17.24;47.32;101430.88;5019667;28;1075;-59
2023/05/04 04:02:40;;;;;;;;;;;;;;;16.91;48.32;101432.75;5019407;28;1203;-59
2023/05/04 04:05:06;;;;;;;;;;;;;;;18.57;46.42;101441.00;5020830;28;1101;-60
2023/05/04 04:07:33;;;;;;;;;;;;;;;17.58;48.63;101449.81;5018372;28;1217;-59
2023/05/04 04:09:58;;;;;;;;;;;;;;;17.08;48.15;101443.63;5018686;28;1902;-59
2023/05/04 04:12:24;;;;;;;;;;;;;;;16.84;47.28;101454.91;5019191;28;1155;-59
2023/05/04 04:14:51;;;;;;;;;;;;;;;16.73;46.59;101462.22;5019748;28;1071;-58
2023/05/04 04:17:16;;;;;;;;;;;;;;;16.57;46.16;101441.16;5017317;28;1053;-59
2023/05/04 04:19:42;;;;;;;;;;;;;;;17.70;47.46;101433.16;5019906;28;1068;-59
2023/05/04 04:22:07;;;;;;;;;;;;;;;16.91;48.03;101441.00;5019350;28;1020;-58
2023/05/04 04:24:33;;;;;;;;;;;;;;;16.74;47.18;101436.41;5018221;28;1127;-60
2023/05/04 04:26:58;;;;;;;;;;;;;;;16.44;46.73;101414.94;5008029;28;1257;-58
2023/05/04 04:29:24;;;;;;;;;;;;;;;17.45;47.26;101413.44;5009054;28;1902;-58
2023/05/04 04:31:50;;;;;;;;;;;;;;;17.06;47.72;101430.16;4999659;28;1274;-59
2023/05/04 04:34:16;;;;;;;;;;;;;;;16.64;47.51;101427.25;4999253;28;1179;-58
2023/05/04 04:36:42;;;;;;;;;;;;;;;17.30;47.33;101407.00;5007331;28;1234;-58
2023/05/04 04:39:08;;;;;;;;;;;;;;;16.95;48.00;101433.91;5018715;28;1258;-59
2023/05/04 04:41:33;;;;;;;;;;;;;;;16.62;47.52;101408.28;5020912;28;1266;-58
2023/05/04 04:43:59;;;;;;;;;;;;;;;16.49;46.87;101412.25;5019153;28;1224;-59
2023/05/04 04:46:24;;;;;;;;;;;;;;;17.68;47.04;101432.56;5018653;28;1259;-58
2023/05/04 04:48:52;;;;;;;;;;;;;;;16.92;47.79;101432.50;5018937;28;1239;-58
2023/05/04 04:51:18;;;;;;;;;;;;;;;16.71;47.25;101458.91;5018974;28;1988;-59
2023/05/04 04:53:43;;;;;;;;;;;;;;;16.47;46.68;101446.56;5021499;28;918;-60
2023/05/04 04:56:09;;;;;;;;;;;;;;;16.38;46.35;101460.72;5018595;28;1075;-57
2023/05/04 04:58:34;;;;;;;;;;;;;;;17.57;46.98;101459.16;5019321;28;1123;-55
2023/05/04 05:01:01;;;;;;;;;;;;;;;16.85;47.25;101450.25;5018794;28;1154;-54
2023/05/04 05:03:27;;;;;;;;;;;;;;;17.42;46.66;101443.38;5018398;28;1068;-52
2023/05/04 05:05:54;;;;;;;;;;;;;;;17.41;46.49;101423.31;5026466;28;1067;-55
2023/05/04 05:08:19;;;;;;;;;;;;;;;16.96;47.71;101421.84;5018899;28;992;-56
2023/05/04 05:10:45;;;;;;;;;;;;;;;16.79;48.23;101388.09;5018872;28;1909;-56
2023/05/04 05:13:10;;;;;;;;;;;;;;;16.62;48.79;101355.28;5018837;28;1233;-58
2023/05/04 05:15:36;;;;;;;;;;;;;;;16.48;49.13;101343.88;5031559;28;1060;-60
2023/05/04 05:18:01;;;;;;;;;;;;;;;16.36;49.58;101344.84;5019881;28;833;-59
2023/05/04 05:20:27;;;;;;;;;;;;;;;16.21;49.82;101340.03;5018981;28;1083;-60
2023/05/04 05:22:52;;;;;;;;;;;;;;;16.11;50.16;101330.88;5018783;28;1209;-58
2023/05/04 05:25:18;;;;;;;;;;;;;;;16.57;49.29;101339.59;5018358;28;1039;-59
2023/05/04 05:27:43;;;;;;;;;;;;;;;17.44;47.17;101332.03;5018441;28;1056;-58
2023/05/04 05:30:10;;;;;;;;;;;;;;;16.68;49.30;101321.28;5023257;28;1914;-58
2023/05/04 05:32:36;;;;;;;;;;;;;;;16.40;49.96;101321.28;5017796;28;1112;-58
2023/05/04 05:35:02;;;;;;;;;;;;;;;16.21;50.31;101322.75;5017964;28;1218;-58
2023/05/04 05:37:27;;;;;;;;;;;;;;;17.18;48.46;101324.72;5019492;28;1178;-58
2023/05/04 05:39:53;;;;;;;;;;;;;;;17.04;48.55;101325.19;5017737;28;1048;-60
2023/05/04 05:42:19;;;;;;;;;;;;;;;16.54;49.92;101342.84;5020110;28;1497;-60
2023/05/04 05:44:44;;;;;;;;;;;;;;;16.37;50.16;101352.00;5017659;28;1071;-60
2023/05/04 05:47:09;;;;;;;;;;;;;;;16.87;49.05;101350.03;5028834;28;1061;-60
2023/05/04 05:49:35;;;;;;;;;;;;;;;17.28;47.88;101352.31;5019861;28;1914;-60
2023/05/04 05:52:01;;;;;;;;;;;;;;;16.68;49.71;101351.50;5017523;28;1055;-60
2023/05/04 05:54:28;;;;;;;;;;;;;;;16.42;50.29;101354.81;5004725;28;1543;-60
2023/05/04 05:56:53;;;;;;;;;;;;;;;16.22;50.83;101352.66;4998537;28;1265;-61
2023/05/04 05:59:19;;;;;;;;;;;;;;;16.61;50.00;101354.44;5011290;28;1296;-59
2023/05/04 06:01:44;;;;;;;;;;;;;;;17.40;47.90;101354.84;5017753;28;1123;-57
2023/05/04 06:04:10;;;;;;;;;;;;;;;16.71;49.63;101359.22;5017988;28;1087;-60
2023/05/04 06:06:35;;;;;;;;;;;;;;;16.43;50.32;101355.63;5021374;28;913;-58
2023/05/04 06:09:01;;;;;;;;;;;;;;;16.20;50.93;101343.03;5014549;28;1446;-57
2023/05/04 06:11:26;;;;;;;;;;;;;;;16.83;49.86;101334.31;5006875;28;1972;-58
2023/05/04 06:13:52;;;;;;;;;;;;;;;17.33;48.24;101327.56;5011568;28;1067;-59
2023/05/04 06:16:18;;;;;;;;;;;;;;;16.71;49.90;101321.59;4997362;28;1179;-60
2023/05/04 06:18:43;;;;;;;;;;;;;;;16.37;50.88;101326.50;5014796;28;1333;-59
2023/05/04 06:21:09;;;;;;;;;;;;;;;16.66;50.36;101312.47;5017706;28;1179;-59
2023/05/04 06:23:35;;;;;;;;;;;;;;;17.33;48.61;101300.09;5017155;28;1147;-58
2023/05/04 06:26:01;;;;;;;;;;;;;;;16.72;50.06;101294.97;5005548;28;1313;-58
2023/05/04 06:28:26;;;;;;;;;;;;;;;16.42;51.24;101283.47;4997563;28;1238;-58
2023/05/04 06:30:51;;;;;;;;;;;;;;;16.27;51.64;101271.47;5000638;28;1972;-61
2023/05/04 06:33:17;;;;;;;;;;;;;;;17.63;48.25;101265.59;4997176;28;1198;-58
2023/05/04 06:35:44;;;;;;;;;;;;;;;16.94;50.10;101267.41;5001189;28;1223;-57
2023/05/04 06:38:09;;;;;;;;;;;;;;;16.56;51.05;101270.13;5004281;28;1024;-59
2023/05/04 06:40:35;;;;;;;;;;;;;;;16.32;51.52;101280.59;5007928;28;1115;-60
2023/05/04 06:43:00;;;;;;;;;;;;;;;16.21;52.11;101279.66;5027833;28;1153;-59
2023/05/04 06:45:26;;;;;;;;;;;;;;;17.57;48.83;101274.91;5016710;28;1106;-59
2023/05/04 06:47:51;;;;;;;;;;;;;;;16.87;50.31;101269.53;5016533;28;1152;-60
2023/05/04 06:50:17;;;;;;;;;;;;;;;16.47;51.52;101279.09;5016788;28;1975;-59
2023/05/04 06:52:43;;;;;;;;;;;;;;;16.21;52.06;101292.56;5016798;28;1182;-56
2023/05/04 06:55:09;;;;;;;;;;;;;;;17.05;50.38;101287.53;5010966;28;1020;-58
2023/05/04 06:57:34;;;;;;;;;;;;;;;17.20;49.72;101298.63;4996412;28;1254;-58
2023/05/04 07:00:00;;;;;;;;;;;;;;;16.60;51.24;101314.34;5000911;28;1056;-58
2023/05/04 07:02:25;;;;;;;;;;;;;;;16.38;51.63;101308.91;5010684;28;1123;-58
2023/05/04 07:04:51;;;;;;;;;;;;;;;16.74;51.28;101315.56;5005717;28;1226;-58
2023/05/04 07:07:17;;;;;;;;;;;;;;;17.42;49.23;101326.00;4998932;28;1207;-60
2023/05/04 07:09:42;;;;;;;;;;;;;;;16.72;50.90;101314.19;5005121;28;1899;-59
2023/05/04 07:12:08;;;;;;;;;;;;;;;16.40;51.99;101324.03;5016447;28;1127;-59
2023/05/04 07:14:33;;;;;;;;;;;;;;;16.24;52.18;101317.59;5012300;28;1103;-57
2023/05/04 07:16:59;;;;;;;;;;;;;;;17.13;50.45;101311.78;4996160;28;1199;-58
2023/05/04 07:19:25;;;;;;;;;;;;;;;17.31;49.66;101315.22;5011700;28;1303;-57
2023/05/04 07:21:51;;;;;;;;;;;;;;;16.63;51.58;101302.03;5016531;28;1286;-58
2023/05/04 07:24:16;;;;;;;;;;;;;;;16.41;51.86;101303.75;5016877;28;1321;-58
2023/05/04 07:26:42;;;;;;;;;;;;;;;17.44;49.62;101290.81;5016177;28;1112;-58
2023/05/04 07:29:08;;;;;;;;;;;;;;;17.16;50.15;101288.44;5015202;28;1096;-58
2023/05/04 07:31:34;;;;;;;;;;;;;;;16.63;51.44;101283.63;5021496;28;964;-57
2023/05/04 07:33:59;;;;;;;;;;;;;;;16.43;52.01;101278.78;5016281;28;1108;-58
2023/05/04 07:36:26;;;;;;;;;;;;;;;16.26;52.55;101273.41;5019489;28;1078;-59
2023/05/04 07:38:52;;;;;;;;;;;;;;;17.00;50.96;101276.50;5008301;28;1077;-59
2023/05/04 07:41:17;;;;;;;;;;;;;;;17.19;49.94;101269.50;4998149;28;1435;-59
2023/05/04 07:43:43;;;;;;;;;;;;;;;16.70;51.56;101270.50;5027012;28;1215;-58
2023/05/04 07:46:09;;;;;;;;;;;;;;;16.43;52.09;101257.63;5005084;28;1175;-59
2023/05/04 07:48:34;;;;;;;;;;;;;;;16.98;51.19;101249.31;5001296;28;1243;-58
2023/05/04 07:51:00;;;;;;;;;;;;;;;17.45;49.51;101247.66;5016344;28;1918;-57
2023/05/04 07:53:25;;;;;;;;;;;;;;;16.76;51.28;101246.69;5015329;28;1063;-59
2023/05/04 07:55:53;;;;;;;;;;;;;;;16.56;51.74;101253.66;5021950;28;949;-57
2023/05/04 07:58:18;;;;;;;;;;;;;;;16.36;52.51;101248.81;5004696;28;1083;-57
2023/05/04 08:00:44;;;;;;;;;;;;;;;16.28;52.55;101248.44;5015796;28;1238;-60
2023/05/04 08:03:09;;;;;;;;;;;;;;;17.64;49.29;101255.44;5010059;28;1295;-59
2023/05/04 08:05:35;;;;;;;;;;;;;;;16.86;50.99;101251.41;4998210;28;1148;-60
2023/05/04 08:08:00;;;;;;;;;;;;;;;16.57;52.20;101251.72;5007212;28;1024;-59
2023/05/04 08:10:27;;;;;;;;;;;;;;;16.40;52.38;101251.88;5015082;28;1914;-60
2023/05/04 08:12:53;;;;;;;;;;;;;;;16.46;52.62;101247.25;4998531;28;1234;-60
2023/05/04 08:15:19;;;;;;;;;;;;;;;17.38;50.08;101252.56;5015682;28;1211;-59
2023/05/04 08:17:44;;;;;;;;;;;;;;;16.72;51.59;101240.88;5015574;28;1094;-59
2023/05/04 08:20:10;;;;;;;;;;;;;;;16.43;52.51;101238.44;5010919;28;1041;-57
2023/05/04 08:22:36;;;;;;;;;;;;;;;16.30;52.85;101232.53;4994739;28;1243;-61
2023/05/04 08:25:02;;;;;;;;;;;;;;;17.30;50.38;101231.09;4998064;28;1357;-57
2023/05/04 08:27:27;;;;;;;;;;;;;;;17.09;50.85;101245.53;4996073;28;1108;-60
2023/05/04 08:29:53;;;;;;;;;;;;;;;16.63;52.03;101241.63;4996170;28;1973;-60
2023/05/04 08:32:18;;;;;;;;;;;;;;;16.45;52.56;101248.31;5015688;28;942;-60
2023/05/04 08:34:44;;;;;;;;;;;;;;;16.23;53.08;101233.59;5016309;28;1005;-60
2023/05/04 08:37:09;;;;;;;;;;;;;;;16.99;51.53;101233.66;5016456;28;1052;-58
2023/05/04 08:39:35;;;;;;;;;;;;;;;17.32;50.50;101229.72;5019327;28;1103;-59
2023/05/04 08:42:01;;;;;;;;;;;;;;;16.72;52.00;101234.56;5019162;28;1142;-59
2023/05/04 08:44:27;;;;;;;;;;;;;;;16.46;52.69;101222.53;5022141;28;1008;-58
2023/05/04 08:46:53;;;;;;;;;;;;;;;16.36;52.93;101226.84;5033877;28;1211;-60
2023/05/04 08:49:19;;;;;;;;;;;;;;;17.55;49.84;101225.69;5017384;28;1906;-58
2023/05/04 08:51:45;;;;;;;;;;;;;;;16.74;52.09;101224.94;5018874;28;1306;-59
2023/05/04 08:54:10;;;;;;;;;;;;;;;16.48;52.98;101220.34;5017468;28;1252;-58
2023/05/04 08:56:37;;;;;;;;;;;;;;;16.33;53.33;101221.06;5024753;28;1083;-59
2023/05/04 08:59:02;;;;;;;;;;;;;;;16.13;53.72;101222.53;5018873;28;1123;-59
2023/05/04 09:01:28;;;;;;;;;;;;;;;16.21;53.64;101219.28;5018657;28;1155;-59
2023/05/04 09:03:53;;;;;;;;;;;;;;;17.58;50.17;101219.66;5017349;28;1148;-59
2023/05/04 09:06:19;;;;;;;;;;;;;;;16.86;51.92;101219.28;5018207;28;1088;-59
2023/05/04 09:08:45;;;;;;;;;;;;;;;16.42;53.14;101220.31;5022933;28;1198;-59
2023/05/04 09:11:10;;;;;;;;;;;;;;;16.29;53.43;101214.44;5018907;28;1907;-59
2023/05/04 09:13:36;;;;;;;;;;;;;;;17.54;50.48;101213.03;5018406;28;1226;-59
2023/05/04 09:16:02;;;;;;;;;;;;;;;16.82;52.22;101209.09;5018775;28;1163;-60
2023/05/04 09:18:41;;;;;;;;;;;;;;;16.51;52.88;101217.06;5019150;28;1230;-60
2023/05/04 09:21:07;;;;;;;;;;;;;;;16.33;53.43;101213.66;5027395;28;1062;-59
2023/05/04 09:23:33;;;;;;;;;;;;;;;16.71;53.00;101210.94;5018563;28;1230;-59
2023/05/04 09:25:58;;;;;;;;;;;;;;;17.27;51.22;101219.53;5016885;28;1216;-59
2023/05/04 09:28:37;;;;;;;;;;;;;;;16.63;53.13;101203.19;5018856;28;1218;-59
2023/05/04 09:31:03;;;;;;;;;;;;;;;16.39;53.36;101196.13;5020312;28;1989;-59
2023/05/04 09:33:29;;;;;;;;;;;;;;;17.23;51.80;101203.84;5013520;28;1175;-59
2023/05/04 09:35:57;;;;;;;;;;;;;;;17.14;51.66;101202.69;5005306;28;1071;-60
2023/05/04 09:38:28;;;;;;;;;;;;;;;16.67;52.92;101199.63;5024296;28;1143;-59
2023/05/04 09:40:54;;;;;;;;;;;;;;;16.40;53.54;101191.47;5018594;28;1067;-59
2023/05/04 09:43:19;;;;;;;;;;;;;;;16.28;53.69;101193.56;5022403;28;1305;-59
2023/05/04 09:45:45;;;;;;;;;;;;;;;16.61;53.50;101192.47;5017858;28;1107;-59
2023/05/04 09:48:15;;;;;;;;;;;;;;;17.69;50.53;101192.19;5016907;28;1203;-59
2023/05/04 09:50:46;;;;;;;;;;;;;;;16.85;52.72;101195.63;5017230;28;1969;-58
2023/05/04 09:53:11;;;;;;;;;;;;;;;16.53;53.33;101191.00;5011301;28;1434;-61
2023/05/04 09:55:38;;;;;;;;;;;;;;;16.39;53.59;101182.41;5021402;28;1338;-60
2023/05/04 09:58:04;;;;;;;;;;;;;;;16.73;53.45;101186.75;5017743;28;1024;-59
2023/05/04 10:00:30;;;;;;;;;;;;;;;17.39;51.35;101183.59;5016117;28;1117;-57
2023/05/04 10:02:55;;;;;;;;;;;;;;;16.67;53.43;101185.09;5016673;28;1302;-58
2023/05/04 10:05:21;;;;;;;;;;;;;;;16.41;53.95;101188.47;5017607;28;1310;-56
2023/05/04 10:07:46;;;;;;;;;;;;;;;16.25;54.26;101181.19;5019453;28;877;-56
2023/05/04 10:10:12;;;;;;;;;;;;;;;16.79;53.40;101190.38;5017666;28;1973;-59
2023/05/04 10:12:38;;;;;;;;;;;;;;;17.46;51.52;101191.59;5017689;28;937;-58
2023/05/04 10:15:10;;;;;;;;;;;;;;;16.73;53.15;101189.50;5017742;28;1067;-58
2023/05/04 10:17:38;;;;;;;;;;;;;;;16.46;53.84;101189.59;5015932;28;950;-61
2023/05/04 10:20:10;;;;;;;;;;;;;;;16.27;54.25;101190.00;5019240;28;1128;-61
2023/05/04 10:22:38;;;;;;;;;;;;;;;16.16;54.50;101183.59;5012887;28;1274;-60
2023/05/04 10:25:07;;;;;;;;;;;;;;;17.08;52.75;101177.94;4997794;28;1294;-61
2023/05/04 10:27:32;;;;;;;;;;;;;;;17.26;52.14;101178.56;4999512;28;1124;-61
2023/05/04 10:30:00;;;;;;;;;;;;;;;16.64;53.59;101178.19;5003350;28;1985;-61
2023/05/04 10:32:25;;;;;;;;;;;;;;;16.40;54.30;101177.75;5028383;28;1215;-60
2023/05/04 10:34:51;;;;;;;;;;;;;;;16.24;54.46;101174.03;5016522;28;1294;-60
2023/05/04 10:37:17;;;;;;;;;;;;;;;16.16;54.61;101178.09;5028132;28;1091;-61
2023/05/04 10:39:52;;;;;;;;;;;;;;;17.28;52.58;101181.88;5017265;28;1023;-61
2023/05/04 10:42:17;;;;;;;;;;;;;;;17.18;52.38;101174.44;5017091;28;1130;-61
2023/05/04 10:44:53;;;;;;;;;;;;;;;16.63;54.04;101171.03;5023259;28;929;-60
2023/05/04 10:47:31;;;;;;;;;;;;;;;16.38;54.68;101180.75;5016584;28;1190;-62
2023/05/04 10:50:05;;;;;;;;;;;;;;;16.20;54.68;101179.25;5016751;28;1914;-61
2023/05/04 10:52:31;;;;;;;;;;;;;;;16.87;53.91;101184.38;5016928;28;1221;-62
2023/05/04 10:55:01;;;;;;;;;;;;;;;17.48;51.98;101183.88;5016963;28;1132;-59
2023/05/04 10:57:27;;;;;;;;;;;;;;;16.71;53.92;101178.78;5015603;28;1032;-61
2023/05/04 10:59:54;;;;;;;;;;;;;;;16.46;54.46;101187.66;4996339;28;1332;-62
2023/05/04 11:02:23;;;;;;;;;;;;;;;16.26;54.99;101188.34;5003636;28;1318;-59
2023/05/04 11:05:04;;;;;;;;;;;;;;;16.18;54.99;101186.88;5015930;28;1360;-59
2023/05/04 11:07:35;;;;;;;;;;;;;;;17.69;52.12;101183.94;5008599;28;1170;-59
2023/05/04 11:10:01;;;;;;;;;;;;;;;16.90;53.81;101192.13;5016126;28;1914;-59
2023/05/04 11:12:26;;;;;;;;;;;;;;;16.50;54.89;101190.72;5016257;28;1310;-58
2023/05/04 11:15:02;;;;;;;;;;;;;;;16.31;55.16;101191.13;5016409;28;1313;-58
2023/05/04 11:17:27;;;;;;;;;;;;;;;16.28;55.26;101191.63;5015849;28;1215;-59
2023/05/04 11:19:53;;;;;;;;;;;;;;;17.73;52.21;101188.63;5021438;28;1115;-61
2023/05/04 11:22:18;;;;;;;;;;;;;;;16.92;53.85;101189.94;5018378;28;1146;-58
2023/05/04 11:24:44;;;;;;;;;;;;;;;16.55;54.58;101180.63;5012688;28;1266;-60
2023/05/04 11:27:21;;;;;;;;;;;;;;;16.36;54.85;101177.44;5015660;28;1214;-58
2023/05/04 11:29:56;;;;;;;;;;;;;;;16.18;55.07;101181.41;5015640;28;1914;-57
2023/05/04 11:32:22;;;;;;;;;;;;;;;17.54;52.71;101176.47;5012571;28;1207;-57
2023/05/04 11:34:48;;;;;;;;;;;;;;;16.96;54.11;101174.59;4997490;28;1317;-59
2023/05/04 11:37:13;;;;;;;;;;;;;;;16.56;54.88;101179.53;5009034;28;1211;-58
2023/05/04 11:39:39;;;;;;;;;;;;;;;16.35;55.13;101177.72;5016099;28;1179;-58
2023/05/04 11:42:08;;;;;;;;;;;;;;;16.21;55.25;101182.81;5016359;28;1227;-57
2023/05/04 11:44:34;;;;;;;;;;;;;;;17.35;53.41;101173.38;5016910;28;1195;-57
2023/05/04 11:46:59;;;;;;;;;;;;;;;17.15;53.32;101168.63;5015531;28;1332;-58
2023/05/04 11:49:26;;;;;;;;;;;;;;;16.65;54.58;101166.13;5015828;28;1977;-58
2023/05/04 11:51:52;;;;;;;;;;;;;;;16.36;55.22;101177.44;5016114;28;1195;-58
2023/05/04 11:54:21;;;;;;;;;;;;;;;16.24;55.07;101171.28;5015746;28;1230;-58
2023/05/04 11:56:46;;;;;;;;;;;;;;;17.22;53.78;101171.94;5005987;28;1270;-58
2023/05/04 11:59:12;;;;;;;;;;;;;;;17.28;53.31;101165.41;4995912;28;1274;-58
2023/05/04 12:01:37;;;;;;;;;;;;;;;16.63;54.99;101171.03;5010359;28;1067;-60
2023/05/04 12:04:03;;;;;;;;;;;;;;;16.48;55.09;101159.97;5014950;28;1067;-58
2023/05/04 12:06:32;;;;;;;;;;;;;;;16.82;54.78;101168.69;4999750;28;1211;-59
2023/05/04 12:09:04;;;;;;;;;;;;;;;17.48;52.94;101170.13;4999083;28;1499;-62
2023/05/04 12:11:30;;;;;;;;;;;;;;;16.79;54.74;101163.75;5004347;28;1918;-59
2023/05/04 12:14:04;;;;;;;;;;;;;;;16.54;55.26;101167.16;5000261;28;1318;-58
2023/05/04 12:16:30;;;;;;;;;;;;;;;16.36;55.46;101163.72;5005075;28;1215;-58
2023/05/04 12:19:05;;;;;;;;;;;;;;;16.36;55.46;101166.47;5018997;28;1064;-58
2023/05/04 12:21:31;;;;;;;;;;;;;;;17.68;52.66;101157.53;5021433;28;877;-59
2023/05/04 12:23:56;;;;;;;;;;;;;;;16.84;54.85;101160.19;5020068;28;1201;-59
2023/05/04 12:26:22;;;;;;;;;;;;;;;16.47;55.57;101158.31;5019515;28;1127;-58
2023/05/04 12:28:47;;;;;;;;;;;;;;;16.37;55.33;101157.16;5019735;28;1071;-59
2023/05/04 12:31:13;;;;;;;;;;;;;;;16.46;55.55;101170.38;5019359;28;1914;-59
2023/05/04 12:33:38;;;;;;;;;;;;;;;17.59;53.04;101166.31;5028036;28;1187;-57
2023/05/04 12:36:04;;;;;;;;;;;;;;;16.82;54.70;101154.97;5020597;28;1009;-61
2023/05/04 12:38:30;;;;;;;;;;;;;;;16.48;55.37;101152.56;5013404;28;1105;-59
2023/05/04 12:40:57;;;;;;;;;;;;;;;16.30;55.49;101147.47;4999715;28;1293;-60
2023/05/04 12:43:23;;;;;;;;;;;;;;;16.20;55.61;101142.72;5015657;28;1020;-56